Time;durP1;ratioP1;P1;durP2;ratioP2;P2;SDS_P1;SDS_P2;PMS_P1;PMS_P2;Temp;Humidity;BMP_temperature;BMP_pressure;BME280_temperature;BME280_humidity;BME280_pressure;Samples;Min_cycle;Max_cycle;Signal;HPM_P1;HPM_P2
2021/12/18 00:01:05;;;;;;;20.55;2.33;;;7.60;99.90;;;;;;4936421;28;20043;-81
2021/12/18 00:03:31;;;;;;;13.52;1.60;;;7.60;99.90;;;;;;4947245;28;20126;-80
2021/12/18 00:05:57;;;;;;;10.90;1.90;;;7.50;99.90;;;;;;5929190;22;20793;-81
2021/12/18 00:08:23;;;;;;;4.22;1.58;;;7.50;99.90;;;;;;4948811;28;20133;-80
2021/12/18 00:10:49;;;;;;;2.95;1.13;;;7.50;99.90;;;;;;4957912;28;20137;-81
2021/12/18 00:13:15;;;;;;;4.35;1.00;;;7.50;99.90;;;;;;4959581;28;20043;-81
2021/12/18 00:15:40;;;;;;;3.97;1.30;;;7.50;99.90;;;;;;4957051;28;20471;-80
2021/12/18 00:18:06;;;;;;;3.95;1.10;;;7.50;99.90;;;;;;4975621;28;20054;-80
2021/12/18 00:20:35;;;;;;;4.57;1.30;;;7.40;99.90;;;;;;4993324;28;20046;-80
2021/12/18 00:23:00;;;;;;;6.80;0.80;;;7.50;99.90;;;;;;4969813;28;20046;-81
2021/12/18 00:25:26;;;;;;;3.90;0.98;;;7.40;99.90;;;;;;4964735;28;20564;-80
2021/12/18 00:27:51;;;;;;;5.78;1.30;;;7.40;99.90;;;;;;4958326;28;20136;-80
2021/12/18 00:30:18;;;;;;;5.18;1.25;;;7.40;99.90;;;;;;4974171;28;20049;-80
2021/12/18 00:32:43;;;;;;;17.70;1.42;;;7.40;99.90;;;;;;4971003;28;20042;-80
2021/12/18 00:35:09;;;;;;;2.58;0.80;;;7.40;99.90;;;;;;4975341;28;20045;-80
2021/12/18 00:37:35;;;;;;;1.95;0.73;;;7.40;99.90;;;;;;4978516;28;20043;-81
2021/12/18 00:40:05;;;;;;;2.85;0.80;;;7.40;99.90;;;;;;4959893;28;20042;-80
2021/12/18 00:42:46;;;;;;;3.10;0.90;;;7.40;99.90;;;;;;4976725;28;20495;-80
2021/12/18 00:45:14;;;;;;;2.22;0.70;;;7.40;99.90;;;;;;4968168;28;20051;-81
2021/12/18 00:47:41;;;;;;;2.25;0.73;;;7.40;99.90;;;;;;4970888;28;20038;-80
2021/12/18 00:50:10;;;;;;;2.45;0.73;;;7.40;99.90;;;;;;4988144;28;20034;-81
2021/12/18 00:52:36;;;;;;;4.38;0.77;;;7.40;99.90;;;;;;4979034;28;20512;-81
2021/12/18 00:55:03;;;;;;;1.88;0.60;;;7.40;99.90;;;;;;4976326;28;20166;-81
2021/12/18 00:57:29;;;;;;;2.40;0.80;;;7.40;99.90;;;;;;4962873;28;20078;-80
2021/12/18 00:59:59;;;;;;;2.85;0.80;;;7.40;99.90;;;;;;4974441;28;20126;-80
2021/12/18 01:02:26;;;;;;;4.53;0.68;;;7.30;99.90;;;;;;4973515;28;20053;-81
2021/12/18 01:04:51;;;;;;;4.03;0.98;;;7.30;99.90;;;;;;4977120;28;20530;-80
2021/12/18 01:07:17;;;;;;;5.35;1.00;;;7.30;99.90;;;;;;4973713;28;20053;-81
2021/12/18 01:12:38;;;;;;;7.43;1.23;;;7.30;99.90;;;;;;4974708;28;20046;-80
2021/12/18 01:23:03;;;;;;;3.78;1.17;;;7.30;99.90;;;;;;4987421;28;20093;-80
2021/12/18 01:25:28;;;;;;;4.28;0.98;;;7.30;99.90;;;;;;4975074;28;20521;-80
2021/12/18 01:27:54;;;;;;;2.38;0.90;;;7.30;99.90;;;;;;4971440;28;20045;-80
2021/12/18 01:30:20;;;;;;;2.72;0.88;;;7.30;99.90;;;;;;4952564;28;20050;-80
2021/12/18 01:32:45;;;;;;;2.95;0.95;;;7.20;99.90;;;;;;4958035;28;20042;-80
2021/12/18 01:35:12;;;;;;;5.53;1.35;;;7.20;99.90;;;;;;4959357;28;20036;-81
2021/12/18 01:37:40;;;;;;;3.60;1.13;;;7.20;99.90;;;;;;4973525;28;20074;-80
2021/12/18 01:40:05;;;;;;;5.55;1.35;;;7.20;99.90;;;;;;4975816;28;20049;-80
2021/12/18 01:43:42;;;;;;;5.53;1.40;;;7.30;99.90;;;;;;4963447;28;20038;-80
2021/12/18 01:45:29;;;;;;;10.10;1.90;;;7.30;99.90;;;;;;4972902;28;20026;-80
2021/12/18 01:53:23;;;;;;;4.07;1.23;;;7.20;99.90;;;;;;4973892;28;20038;-80
2021/12/18 01:55:51;;;;;;;3.15;0.93;;;7.20;99.90;;;;;;4975282;28;20417;-80
2021/12/18 01:58:21;;;;;;;4.85;0.90;;;7.20;99.90;;;;;;4973409;28;20046;-81
2021/12/18 02:00:47;;;;;;;3.83;0.85;;;7.20;99.90;;;;;;4979684;28;20038;-80
2021/12/18 02:03:13;;;;;;;3.90;1.08;;;7.20;99.90;;;;;;4965050;28;20659;-81
2021/12/18 02:05:39;;;;;;;5.30;1.35;;;7.20;99.90;;;;;;4980082;28;20102;-81
2021/12/18 02:08:06;;;;;;;6.00;1.08;;;7.20;99.90;;;;;;4971023;28;20046;-82
2021/12/18 02:10:42;;;;;;;5.32;1.20;;;7.20;99.90;;;;;;4979801;28;20054;-81
2021/12/18 02:13:23;;;;;;;5.97;0.90;;;7.20;99.90;;;;;;4980808;28;20130;-80
2021/12/18 02:21:22;;;;;;;2.58;0.77;;;7.10;99.90;;;;;;4980568;28;20042;-81
2021/12/18 02:23:48;;;;;;;5.40;1.35;;;7.10;99.90;;;;;;4955455;28;20034;-81
2021/12/18 02:26:14;;;;;;;4.20;1.00;;;7.10;99.90;;;;;;4978917;28;20376;-81
2021/12/18 02:28:43;;;;;;;4.82;1.02;;;7.10;99.90;;;;;;4976172;28;20077;-81
2021/12/18 02:31:09;;;;;;;7.28;1.30;;;7.10;99.90;;;;;;4979393;28;20097;-81
2021/12/18 02:33:35;;;;;;;8.23;1.30;;;7.10;99.90;;;;;;4983040;28;20473;-81
2021/12/18 02:36:04;;;;;;;6.47;1.20;;;7.10;99.90;;;;;;4980505;28;20126;-82
2021/12/18 02:38:57;;;;;;;4.82;1.30;;;7.10;99.90;;;;;;4976838;28;20042;-82
2021/12/18 02:43:54;;;;;;;6.55;1.30;;;7.10;99.90;;;;;;4978543;28;20061;-82
2021/12/18 02:46:20;;;;;;;7.30;1.40;;;7.10;99.90;;;;;;4957841;28;20045;-81
2021/12/18 02:48:48;;;;;;;6.15;1.17;;;7.10;99.90;;;;;;4981374;28;20062;-82
2021/12/18 02:51:14;;;;;;;7.00;1.15;;;7.00;99.90;;;;;;4981539;28;20049;-81
2021/12/18 02:53:46;;;;;;;2.15;0.60;;;7.00;99.90;;;;;;4963963;28;20042;-81
2021/12/18 02:56:14;;;;;;;6.45;1.05;;;7.00;99.90;;;;;;4979826;28;20106;-82
2021/12/18 02:58:42;;;;;;;2.25;0.57;;;7.00;99.90;;;;;;4962112;28;20438;-81
2021/12/18 03:01:10;;;;;;;4.32;0.70;;;7.00;99.90;;;;;;4980033;28;20049;-81
2021/12/18 03:03:39;;;;;;;1.52;0.50;;;6.90;99.90;;;;;;4977479;28;20030;-81
2021/12/18 03:06:29;;;;;;;4.80;0.65;;;6.90;99.90;;;;;;4975278;28;20049;-81
2021/12/18 03:27:22;;;;;;;22.60;1.63;;;6.80;99.90;;;;;;4955288;29;20058;-82
2021/12/18 03:29:48;;;;;;;38.13;2.83;;;6.80;99.90;;;;;;4951733;29;20597;-81
2021/12/18 03:32:13;;;;;;;31.48;2.55;;;6.80;99.90;;;;;;4954061;28;20043;-81
2021/12/18 03:34:39;;;;;;;61.03;3.03;;;6.70;99.90;;;;;;4953697;28;20040;-81
2021/12/18 03:37:05;;;;;;;63.53;2.30;;;6.70;99.90;;;;;;4938567;29;20118;-81
2021/12/18 03:39:32;;;;;;;37.33;1.58;;;6.70;99.90;;;;;;4954231;29;20038;-81
2021/12/18 03:41:57;;;;;;;47.80;2.38;;;6.70;99.90;;;;;;4955082;29;20039;-82
2021/12/18 03:44:24;;;;;;;45.78;1.92;;;6.60;99.90;;;;;;4951848;28;20040;-81
2021/12/18 03:46:50;;;;;;;9.65;0.70;;;6.50;99.90;;;;;;4951868;29;20035;-81
2021/12/18 03:49:17;;;;;;;30.98;1.33;;;6.50;99.90;;;;;;4940230;29;20496;-81
2021/12/18 03:51:43;;;;;;;40.22;2.15;;;6.40;99.90;;;;;;4953990;29;20085;-81
2021/12/18 03:54:09;;;;;;;24.25;1.67;;;6.30;99.90;;;;;;4953107;29;20043;-81
2021/12/18 03:56:35;;;;;;;17.23;1.15;;;6.30;99.90;;;;;;4954082;29;20047;-81
2021/12/18 03:59:01;;;;;;;4.20;0.80;;;6.30;99.90;;;;;;4949318;29;20059;-81
2021/12/18 04:01:27;;;;;;;1.77;0.57;;;6.30;99.90;;;;;;4938646;29;20517;-81
2021/12/18 04:03:53;;;;;;;4.07;1.48;;;6.30;99.90;;;;;;4953166;28;20040;-81
2021/12/18 04:06:18;;;;;;;4.13;0.55;;;6.30;99.90;;;;;;4956464;28;20143;-81
2021/12/18 04:08:44;;;;;;;26.95;2.38;;;6.30;99.90;;;;;;4975353;28;20050;-81
2021/12/18 04:11:10;;;;;;;24.90;1.80;;;6.30;99.90;;;;;;4958361;28;20146;-81
2021/12/18 04:13:36;;;;;;;12.88;0.95;;;6.30;99.90;;;;;;4972191;28;20106;-81
2021/12/18 04:16:01;;;;;;;5.57;0.80;;;6.30;99.90;;;;;;4974476;28;20030;-81
2021/12/18 04:18:27;;;;;;;13.93;0.98;;;6.30;99.90;;;;;;4974778;28;20533;-80
2021/12/18 04:20:55;;;;;;;15.82;1.13;;;6.30;99.90;;;;;;4969713;28;20340;-82
2021/12/18 04:23:20;;;;;;;4.20;0.60;;;6.30;99.90;;;;;;4972938;28;20053;-81
2021/12/18 04:25:46;;;;;;;13.15;0.90;;;6.40;99.90;;;;;;4958577;28;20140;-81
2021/12/18 04:28:12;;;;;;;9.45;0.85;;;6.30;99.90;;;;;;4960248;28;20120;-81
2021/12/18 04:30:38;;;;;;;6.35;0.63;;;6.40;99.90;;;;;;4962442;28;20049;-81
2021/12/18 04:33:03;;;;;;;8.95;0.77;;;6.40;99.90;;;;;;4959677;28;20061;-81
2021/12/18 04:35:29;;;;;;;4.60;0.75;;;6.30;99.90;;;;;;4973665;28;20034;-82
2021/12/18 04:37:55;;;;;;;7.15;1.05;;;6.30;99.90;;;;;;4958306;28;20042;-81
2021/12/18 04:40:26;;;;;;;15.15;1.02;;;6.30;99.90;;;;;;4973943;28;20045;-81
2021/12/18 04:42:55;;;;;;;8.70;0.65;;;6.30;99.90;;;;;;4958092;28;20073;-81
2021/12/18 04:45:22;;;;;;;9.40;0.98;;;6.30;99.90;;;;;;4990043;28;20034;-81
2021/12/18 04:47:47;;;;;;;5.22;0.90;;;6.40;99.90;;;;;;4973400;28;20042;-81
2021/12/18 04:50:13;;;;;;;8.95;1.00;;;6.40;99.90;;;;;;4959313;28;20037;-81
2021/12/18 04:52:39;;;;;;;2.05;0.50;;;6.40;99.90;;;;;;4975107;28;20487;-81
2021/12/18 04:55:06;;;;;;;3.40;0.75;;;6.40;99.90;;;;;;4971536;28;20030;-81
2021/12/18 04:57:31;;;;;;;2.05;0.60;;;6.40;99.90;;;;;;4955682;28;20054;-81
2021/12/18 04:59:57;;;;;;;2.38;0.40;;;6.30;99.90;;;;;;4977417;28;20037;-81
2021/12/18 05:02:33;;;;;;;2.20;0.60;;;6.40;99.90;;;;;;4960181;28;20046;-81
2021/12/18 05:04:59;;;;;;;1.80;0.50;;;6.30;99.90;;;;;;4958350;28;20042;-81
2021/12/18 05:07:26;;;;;;;2.97;0.50;;;6.30;99.90;;;;;;4973145;28;20593;-82
2021/12/18 05:09:52;;;;;;;2.70;0.63;;;6.30;99.90;;;;;;4978547;28;20137;-81
2021/12/18 05:12:18;;;;;;;1.50;0.40;;;6.30;99.90;;;;;;4955886;28;20182;-81
2021/12/18 05:14:43;;;;;;;8.98;0.80;;;6.30;99.90;;;;;;4972834;28;20093;-81
2021/12/18 05:17:09;;;;;;;6.90;0.50;;;6.30;99.90;;;;;;4988823;28;20137;-81
2021/12/18 05:19:35;;;;;;;2.03;0.40;;;6.30;99.90;;;;;;4956445;28;20492;-80
2021/12/18 05:22:01;;;;;;;2.67;0.35;;;6.40;99.90;;;;;;4955422;28;20117;-81
2021/12/18 05:24:26;;;;;;;5.47;0.60;;;6.40;99.90;;;;;;4987385;28;20042;-81
2021/12/18 05:26:52;;;;;;;4.53;0.50;;;6.40;99.90;;;;;;4972558;28;20043;-80
2021/12/18 05:29:17;;;;;;;2.00;0.38;;;6.40;99.90;;;;;;4973753;28;20069;-80
2021/12/18 05:31:45;;;;;;;3.35;0.50;;;6.30;99.90;;;;;;4974391;28;20114;-81
2021/12/18 05:34:11;;;;;;;3.42;0.50;;;6.30;99.90;;;;;;4953817;28;20038;-81
2021/12/18 05:37:11;;;;;;;1.35;0.40;;;6.30;99.90;;;;;;4974003;28;20066;-81
2021/12/18 05:39:29;;;;;;;3.28;0.50;;;6.30;99.90;;;;;;4971903;28;20499;-81
2021/12/18 05:41:56;;;;;;;1.98;0.25;;;6.30;99.90;;;;;;4973112;28;20042;-82
2021/12/18 05:44:25;;;;;;;2.42;0.40;;;6.20;99.90;;;;;;4956214;28;20042;-81
2021/12/18 05:46:52;;;;;;;2.58;0.60;;;6.20;99.90;;;;;;4958874;28;20060;-81
2021/12/18 05:49:18;;;;;;;2.58;0.60;;;6.20;99.90;;;;;;4954951;28;20030;-81
2021/12/18 05:51:45;;;;;;;1.60;0.50;;;6.20;99.90;;;;;;4969952;28;20140;-81
2021/12/18 05:54:11;;;;;;;1.42;0.40;;;6.20;99.90;;;;;;4972513;28;20046;-81
2021/12/18 05:56:38;;;;;;;4.68;0.70;;;6.20;99.90;;;;;;4974837;28;20147;-81
2021/12/18 05:59:05;;;;;;;3.88;1.08;;;6.10;99.90;;;;;;4973406;28;20026;-81
2021/12/18 06:01:31;;;;;;;4.78;0.95;;;6.10;99.90;;;;;;4967643;28;20035;-81
2021/12/18 06:03:57;;;;;;;4.95;0.80;;;6.20;99.90;;;;;;4972202;28;20056;-80
2021/12/18 06:06:23;;;;;;;5.10;1.00;;;6.10;99.90;;;;;;4956835;28;20549;-81
2021/12/18 06:08:49;;;;;;;5.35;1.10;;;6.10;99.90;;;;;;4972809;28;20137;-81
2021/12/18 06:11:18;;;;;;;4.45;0.88;;;6.10;99.90;;;;;;4968451;28;20046;-81
2021/12/18 06:13:46;;;;;;;4.40;0.98;;;6.20;99.90;;;;;;4973230;28;20047;-81
2021/12/18 06:16:12;;;;;;;8.25;1.40;;;6.10;99.90;;;;;;4962184;28;20034;-81
2021/12/18 06:18:40;;;;;;;6.22;1.35;;;6.10;99.90;;;;;;4955593;28;20070;-80
2021/12/18 06:21:06;;;;;;;8.63;1.15;;;6.10;99.90;;;;;;4976589;28;20075;-81
2021/12/18 06:23:33;;;;;;;8.70;1.63;;;6.10;99.90;;;;;;4969144;28;20088;-81
2021/12/18 06:25:59;;;;;;;6.30;1.88;;;6.10;99.90;;;;;;4971105;28;20196;-81
2021/12/18 06:28:25;;;;;;;5.55;1.25;;;6.10;99.90;;;;;;4952357;28;20100;-81
2021/12/18 06:30:51;;;;;;;4.18;1.20;;;6.20;99.90;;;;;;4968359;28;20042;-81
2021/12/18 06:33:17;;;;;;;4.00;0.98;;;6.10;99.90;;;;;;4977932;28;20090;-81
2021/12/18 06:35:43;;;;;;;4.28;1.35;;;6.20;99.90;;;;;;4971092;28;20067;-81
2021/12/18 06:38:09;;;;;;;6.40;1.45;;;6.10;99.90;;;;;;4977548;28;20383;-81
2021/12/18 06:40:34;;;;;;;4.93;1.35;;;6.20;99.90;;;;;;4950081;28;20090;-81
2021/12/18 06:43:00;;;;;;;5.10;1.30;;;6.10;99.90;;;;;;4953703;28;20050;-81
2021/12/18 06:45:26;;;;;;;7.63;1.38;;;6.20;99.90;;;;;;4969352;28;20041;-81
2021/12/18 06:47:52;;;;;;;4.13;1.10;;;6.20;99.90;;;;;;4977369;28;20113;-82
2021/12/18 06:50:18;;;;;;;5.97;1.60;;;6.20;99.90;;;;;;4956519;28;20069;-81
2021/12/18 06:52:44;;;;;;;5.00;1.40;;;6.20;99.90;;;;;;4960557;28;20494;-81
2021/12/18 06:55:09;;;;;;;3.97;1.13;;;6.20;99.90;;;;;;4971552;28;20173;-81
2021/12/18 06:57:35;;;;;;;5.90;1.52;;;6.20;99.90;;;;;;4968111;28;20092;-81
2021/12/18 07:00:01;;;;;;;6.65;1.50;;;6.20;99.90;;;;;;4972975;28;20030;-81
2021/12/18 07:02:26;;;;;;;6.97;1.13;;;6.20;99.90;;;;;;4958594;28;20034;-81
2021/12/18 07:04:52;;;;;;;5.22;1.17;;;6.20;99.90;;;;;;4973077;28;20518;-84
2021/12/18 07:07:18;;;;;;;3.05;0.80;;;6.20;99.90;;;;;;4969488;28;20120;-81
2021/12/18 07:09:44;;;;;;;6.28;1.38;;;6.20;99.90;;;;;;4962089;28;20046;-80
2021/12/18 07:12:10;;;;;;;4.55;1.08;;;6.20;99.90;;;;;;4972193;28;20727;-81
2021/12/18 07:14:37;;;;;;;6.60;1.48;;;6.20;99.90;;;;;;4971309;28;20038;-81
2021/12/18 07:17:04;;;;;;;6.05;1.92;;;6.20;99.90;;;;;;4975347;28;20488;-81
2021/12/18 07:19:29;;;;;;;6.10;1.65;;;6.20;99.90;;;;;;4988164;28;20030;-81
2021/12/18 07:21:55;;;;;;;6.85;1.20;;;6.10;99.90;;;;;;4972347;28;20505;-81
2021/12/18 07:24:21;;;;;;;8.20;1.65;;;6.20;99.90;;;;;;4972294;28;20136;-81
2021/12/18 07:26:47;;;;;;;6.45;1.58;;;6.10;99.90;;;;;;4971396;28;20416;-81
2021/12/18 07:29:12;;;;;;;4.10;1.35;;;6.10;99.90;;;;;;4955272;28;20207;-81
2021/12/18 07:31:38;;;;;;;10.60;1.67;;;6.10;99.90;;;;;;4988461;28;20495;-81
2021/12/18 07:34:04;;;;;;;3.90;1.05;;;6.10;99.90;;;;;;4977118;28;20542;-81
2021/12/18 07:36:30;;;;;;;10.57;1.58;;;6.10;99.90;;;;;;4956722;28;20471;-81
2021/12/18 07:38:55;;;;;;;8.88;1.70;;;6.10;99.90;;;;;;4972076;28;20045;-81
2021/12/18 07:41:21;;;;;;;8.93;1.30;;;6.10;99.90;;;;;;4971730;28;20548;-81
2021/12/18 07:43:47;;;;;;;13.07;2.25;;;6.10;99.90;;;;;;4957592;28;20426;-82
2021/12/18 07:46:13;;;;;;;4.57;1.25;;;6.10;99.90;;;;;;4956057;28;20089;-82
2021/12/18 07:48:38;;;;;;;15.95;2.53;;;6.20;99.90;;;;;;4992267;28;20042;-83
2021/12/18 07:51:04;;;;;;;13.15;2.38;;;6.10;99.90;;;;;;4972381;28;20065;-81
2021/12/18 07:53:30;;;;;;;4.85;1.17;;;6.10;99.90;;;;;;4957340;28;20505;-82
2021/12/18 07:55:55;;;;;;;7.95;2.10;;;6.20;99.90;;;;;;4959161;28;20093;-82
2021/12/18 07:58:21;;;;;;;5.15;1.60;;;6.10;99.90;;;;;;4950845;28;20073;-81
2021/12/18 08:00:47;;;;;;;5.40;1.40;;;6.10;99.90;;;;;;4970953;28;20035;-82
2021/12/18 08:03:12;;;;;;;8.85;1.88;;;6.10;99.90;;;;;;4971525;28;20092;-82
2021/12/18 08:05:38;;;;;;;5.18;1.40;;;6.20;99.90;;;;;;4987121;28;20038;-81
2021/12/18 08:08:04;;;;;;;7.25;1.67;;;6.10;99.90;;;;;;4956667;28;20053;-82
2021/12/18 08:10:29;;;;;;;19.10;2.38;;;6.10;99.90;;;;;;4973790;28;20053;-82
2021/12/18 08:12:55;;;;;;;8.00;1.65;;;6.20;99.90;;;;;;4973898;28;20046;-82
2021/12/18 08:15:21;;;;;;;8.40;1.45;;;6.10;99.90;;;;;;4971626;28;20046;-82
2021/12/18 08:17:46;;;;;;;6.82;1.65;;;6.10;99.90;;;;;;4976230;28;20495;-82
2021/12/18 08:20:12;;;;;;;4.97;1.30;;;6.10;99.90;;;;;;4972767;28;20105;-82
2021/12/18 08:22:38;;;;;;;6.97;1.50;;;6.10;99.90;;;;;;4969804;28;20116;-81
2021/12/18 08:25:05;;;;;;;8.52;1.60;;;6.10;99.90;;;;;;4975228;28;20120;-82
2021/12/18 08:27:30;;;;;;;8.23;1.33;;;6.20;99.90;;;;;;4955613;28;20046;-83
2021/12/18 08:29:56;;;;;;;6.82;1.23;;;6.20;99.90;;;;;;4971290;28;20514;-82
2021/12/18 08:32:22;;;;;;;6.57;1.10;;;6.20;99.90;;;;;;4985831;28;20078;-82
2021/12/18 08:34:48;;;;;;;5.78;0.93;;;6.20;99.90;;;;;;4973977;28;20030;-81
2021/12/18 08:37:14;;;;;;;5.45;1.00;;;6.30;99.90;;;;;;4972622;28;20042;-81
2021/12/18 08:39:39;;;;;;;4.68;1.20;;;6.30;99.90;;;;;;4969640;28;20120;-81
2021/12/18 08:42:06;;;;;;;7.00;1.40;;;6.30;99.90;;;;;;4955756;28;20476;-81
2021/12/18 08:44:35;;;;;;;4.25;1.10;;;6.30;99.90;;;;;;4971987;28;20042;-81
2021/12/18 08:47:01;;;;;;;6.72;1.30;;;6.30;99.90;;;;;;4968665;28;20184;-81
2021/12/18 08:49:27;;;;;;;3.40;0.82;;;6.30;99.90;;;;;;4968828;28;20125;-81
2021/12/18 08:51:54;;;;;;;4.38;1.00;;;6.30;99.90;;;;;;4962264;28;20448;-81
2021/12/18 08:54:20;;;;;;;8.20;1.38;;;6.40;99.90;;;;;;4969346;28;20034;-81
2021/12/18 08:56:46;;;;;;;8.05;1.10;;;6.40;99.90;;;;;;4971636;28;20579;-81
2021/12/18 08:59:12;;;;;;;11.20;1.60;;;6.40;99.90;;;;;;4956522;28;20045;-81
2021/12/18 09:01:37;;;;;;;5.13;0.98;;;6.40;99.90;;;;;;4971102;28;20038;-81
2021/12/18 09:04:03;;;;;;;6.35;1.15;;;6.40;99.90;;;;;;4971011;28;20049;-81
2021/12/18 09:06:29;;;;;;;7.30;1.38;;;6.40;99.90;;;;;;4973407;28;20140;-82
2021/12/18 09:08:54;;;;;;;7.15;1.42;;;6.50;99.90;;;;;;4957289;28;20144;-81
2021/12/18 09:11:21;;;;;;;9.57;1.50;;;6.50;99.90;;;;;;4971366;28;20046;-81
2021/12/18 09:13:47;;;;;;;10.63;1.80;;;6.50;99.90;;;;;;4972979;28;20911;-81
2021/12/18 09:16:13;;;;;;;6.75;1.52;;;6.50;99.90;;;;;;4969703;28;20407;-80
2021/12/18 09:18:39;;;;;;;7.10;1.50;;;6.60;99.90;;;;;;4971666;28;20050;-80
2021/12/18 09:21:04;;;;;;;9.80;1.95;;;6.60;99.90;;;;;;4955845;28;20125;-81
2021/12/18 09:23:30;;;;;;;6.15;1.40;;;6.60;99.90;;;;;;4972804;28;20456;-81
2021/12/18 09:25:57;;;;;;;7.43;1.40;;;6.70;99.90;;;;;;4973745;28;20034;-81
2021/12/18 09:28:23;;;;;;;7.97;1.50;;;6.70;99.90;;;;;;4954106;28;20050;-81
2021/12/18 09:30:48;;;;;;;7.97;1.70;;;6.80;99.90;;;;;;4950222;28;20045;-81
2021/12/18 09:33:16;;;;;;;12.70;1.98;;;6.80;99.90;;;;;;4969802;28;20040;-81
2021/12/18 09:35:42;;;;;;;5.70;1.70;;;6.80;99.90;;;;;;4968466;28;20053;-81
2021/12/18 09:38:08;;;;;;;8.55;1.80;;;6.80;99.90;;;;;;4949566;28;20133;-81
2021/12/18 09:40:34;;;;;;;6.90;1.85;;;6.90;99.90;;;;;;4952460;28;20132;-81
2021/12/18 09:43:00;;;;;;;5.88;1.75;;;6.90;99.90;;;;;;4969461;28;20129;-81
2021/12/18 09:45:26;;;;;;;9.00;2.40;;;6.90;99.90;;;;;;4971297;28;20543;-81
2021/12/18 09:47:52;;;;;;;6.93;1.83;;;7.00;99.90;;;;;;4967512;28;20050;-82
2021/12/18 09:50:21;;;;;;;11.73;3.03;;;7.00;99.90;;;;;;4966764;28;20038;-81
2021/12/18 09:52:47;;;;;;;9.43;2.25;;;7.00;99.90;;;;;;4935379;28;20108;-81
2021/12/18 09:55:15;;;;;;;7.20;2.45;;;7.00;99.90;;;;;;4953621;28;21731;-81
2021/12/18 09:57:41;;;;;;;11.32;2.70;;;7.00;99.90;;;;;;4972243;28;20045;-81
2021/12/18 10:00:19;;;;;;;13.32;2.67;;;7.00;99.90;;;;;;4968933;28;20042;-81
2021/12/18 10:02:45;;;;;;;11.38;2.95;;;7.00;99.90;;;;;;4951854;28;20042;-81
2021/12/18 10:05:26;;;;;;;13.00;2.95;;;7.00;99.90;;;;;;4962199;28;20046;-81
2021/12/18 10:08:15;;;;;;;14.70;3.35;;;7.10;99.90;;;;;;4947495;28;20054;-81
2021/12/18 10:11:03;;;;;;;12.60;3.40;;;7.10;99.90;;;;;;4967898;28;20038;-81
2021/12/18 10:13:31;;;;;;;15.40;4.00;;;7.10;99.90;;;;;;4954959;28;20088;-81
2021/12/18 10:16:11;;;;;;;11.20;3.35;;;7.10;99.90;;;;;;4970551;28;20047;-81
2021/12/18 10:18:37;;;;;;;13.15;3.70;;;7.00;99.90;;;;;;4970565;28;20085;-81
2021/12/18 10:21:08;;;;;;;15.95;4.00;;;7.00;99.90;;;;;;4975449;28;20863;-81
2021/12/18 10:23:34;;;;;;;9.65;3.58;;;7.10;99.90;;;;;;4967995;28;20078;-81
2021/12/18 10:26:00;;;;;;;11.73;3.40;;;7.10;99.90;;;;;;4956786;28;20066;-81
2021/12/18 10:28:42;;;;;;;9.77;3.50;;;7.10;99.90;;;;;;4974595;28;20513;-81
2021/12/18 10:31:08;;;;;;;13.93;3.55;;;7.10;99.90;;;;;;4957459;28;20427;-81
2021/12/18 10:33:35;;;;;;;11.65;3.25;;;7.10;99.90;;;;;;4975646;28;20043;-81
2021/12/18 10:36:02;;;;;;;14.07;3.60;;;7.20;99.90;;;;;;4956787;28;20030;-82
2021/12/18 10:38:55;;;;;;;12.50;3.55;;;7.20;99.90;;;;;;4973440;28;20049;-82
2021/12/18 10:41:32;;;;;;;11.57;2.90;;;7.20;99.90;;;;;;4972446;28;20062;-81
2021/12/18 10:44:18;;;;;;;9.27;2.92;;;7.20;99.90;;;;;;4972719;28;20042;-81
2021/12/18 10:46:45;;;;;;;11.15;2.67;;;7.30;99.90;;;;;;4970516;28;20061;-81
2021/12/18 10:49:14;;;;;;;9.75;2.50;;;7.30;99.90;;;;;;4973047;28;20053;-82
2021/12/18 10:51:41;;;;;;;11.05;2.83;;;7.30;99.90;;;;;;4956420;28;20042;-82
2021/12/18 10:54:09;;;;;;;9.40;2.88;;;7.30;99.90;;;;;;4971871;28;20082;-82
2021/12/18 10:56:38;;;;;;;11.35;2.95;;;7.40;99.90;;;;;;4970624;28;20506;-82
2021/12/18 10:59:19;;;;;;;8.30;2.50;;;7.50;99.90;;;;;;4950149;28;20053;-82
2021/12/18 11:01:56;;;;;;;8.85;2.90;;;7.50;99.90;;;;;;4969491;28;20051;-81
2021/12/18 11:04:23;;;;;;;9.80;3.13;;;7.50;99.90;;;;;;4952101;28;20054;-81
2021/12/18 11:06:49;;;;;;;13.52;3.28;;;7.60;99.90;;;;;;4955901;28;20382;-81
2021/12/18 11:09:17;;;;;;;10.98;2.90;;;7.60;99.90;;;;;;4955487;28;20053;-81
2021/12/18 11:14:21;;;;;;;15.25;3.45;;;7.60;99.90;;;;;;4973936;28;20046;-81
2021/12/18 11:16:56;;;;;;;14.63;3.95;;;7.60;99.90;;;;;;4970759;28;20486;-81
2021/12/18 11:19:27;;;;;;;11.02;2.97;;;7.70;99.90;;;;;;4955193;28;20054;-82
2021/12/18 11:22:07;;;;;;;13.90;3.30;;;7.70;99.90;;;;;;4959977;28;20577;-80
2021/12/18 11:24:53;;;;;;;9.18;3.47;;;7.70;99.90;;;;;;4956582;28;20042;-82
2021/12/18 11:27:21;;;;;;;9.43;3.08;;;7.70;99.90;;;;;;4969026;28;20030;-81
2021/12/18 11:30:06;;;;;;;13.48;4.20;;;7.70;99.90;;;;;;4954094;28;20121;-82
2021/12/18 11:32:40;;;;;;;8.60;2.47;;;7.80;99.90;;;;;;4972740;28;20074;-82
2021/12/18 11:35:15;;;;;;;12.98;3.88;;;7.90;99.90;;;;;;4970153;28;20026;-82
2021/12/18 11:37:49;;;;;;;10.65;3.40;;;7.90;99.90;;;;;;4968607;28;20522;-82
2021/12/18 11:40:24;;;;;;;11.27;4.28;;;7.90;99.90;;;;;;4973497;28;20030;-82
2021/12/18 11:42:50;;;;;;;9.55;3.55;;;8.00;99.90;;;;;;4956389;28;20034;-82
2021/12/18 11:45:15;;;;;;;11.15;3.22;;;8.00;99.90;;;;;;4969744;28;20436;-82
2021/12/18 11:48:00;;;;;;;9.13;3.50;;;8.00;99.90;;;;;;4953309;28;20093;-82
2021/12/18 11:50:37;;;;;;;11.50;3.92;;;8.10;99.90;;;;;;4965863;28;20491;-81
2021/12/18 11:53:08;;;;;;;10.18;3.28;;;8.10;99.90;;;;;;4964821;28;20055;-82
2021/12/18 11:55:37;;;;;;;12.73;3.63;;;8.10;99.90;;;;;;4948542;28;20738;-81
2021/12/18 11:58:14;;;;;;;8.63;3.10;;;8.20;99.90;;;;;;4965757;28;20049;-82
2021/12/18 12:01:03;;;;;;;8.60;3.20;;;8.20;99.90;;;;;;4950929;28;20480;-82
2021/12/18 12:03:40;;;;;;;3.35;1.73;;;8.20;99.90;;;;;;4953818;28;20121;-81
2021/12/18 12:06:24;;;;;;;7.55;1.90;;;8.30;99.90;;;;;;4973031;28;20476;-81
2021/12/18 12:09:39;;;;;;;3.88;1.52;;;8.30;99.90;;;;;;4968022;28;20078;-81
2021/12/18 12:12:06;;;;;;;2.22;0.80;;;8.30;99.90;;;;;;4968441;28;20042;-81
2021/12/18 12:14:34;;;;;;;2.38;1.02;;;8.40;99.90;;;;;;4953711;28;20096;-81
2021/12/18 12:17:07;;;;;;;3.47;0.82;;;8.40;99.90;;;;;;4971593;28;20038;-81
2021/12/18 12:19:36;;;;;;;3.63;0.77;;;8.40;99.90;;;;;;4955810;28;20038;-82
2021/12/18 12:22:04;;;;;;;2.63;0.80;;;8.40;99.90;;;;;;4962722;28;20042;-81
2021/12/18 12:24:32;;;;;;;1.98;0.80;;;8.40;99.90;;;;;;4966586;28;20031;-81
2021/12/18 12:27:27;;;;;;;2.22;0.88;;;8.40;99.90;;;;;;4967231;28;20144;-81
2021/12/18 12:29:53;;;;;;;4.47;0.80;;;8.40;99.90;;;;;;4967323;28;20026;-81
2021/12/18 12:32:20;;;;;;;2.50;0.70;;;8.40;99.90;;;;;;4967154;28;20488;-81
2021/12/18 12:35:06;;;;;;;2.55;0.93;;;8.40;99.90;;;;;;4969249;28;20056;-81
2021/12/18 12:37:39;;;;;;;2.22;0.93;;;8.40;99.90;;;;;;4965933;28;20073;-81
2021/12/18 12:40:12;;;;;;;3.63;1.13;;;8.50;99.90;;;;;;4955781;28;20049;-81
2021/12/18 12:42:41;;;;;;;4.63;1.65;;;8.40;99.90;;;;;;4956502;28;20050;-81
2021/12/18 12:45:13;;;;;;;6.15;1.50;;;8.40;99.90;;;;;;4969401;28;20129;-81
2021/12/18 12:47:40;;;;;;;5.03;2.00;;;8.40;99.90;;;;;;4951360;28;20090;-81
2021/12/18 12:50:11;;;;;;;3.67;1.17;;;8.40;99.90;;;;;;4955104;28;20480;-81
2021/12/18 12:52:53;;;;;;;2.30;1.00;;;8.40;99.90;;;;;;4963671;28;20995;-80
2021/12/18 12:55:21;;;;;;;2.25;0.80;;;8.40;99.90;;;;;;4969506;28;20046;-80
2021/12/18 12:57:50;;;;;;;2.75;0.80;;;8.40;99.90;;;;;;4954506;28;20038;-80
2021/12/18 13:00:22;;;;;;;2.10;0.75;;;8.40;99.90;;;;;;4944847;28;20042;-80
2021/12/18 13:02:59;;;;;;;3.50;0.70;;;8.40;99.90;;;;;;4955135;28;20043;-80
2021/12/18 13:05:26;;;;;;;3.13;0.82;;;8.40;99.90;;;;;;4954195;28;20172;-80
2021/12/18 13:07:58;;;;;;;1.83;0.75;;;8.40;99.90;;;;;;4954157;28;20462;-80
2021/12/18 13:10:38;;;;;;;3.17;0.93;;;8.40;99.90;;;;;;4962160;28;20050;-81
2021/12/18 13:13:06;;;;;;;3.15;0.90;;;8.40;99.90;;;;;;4956366;28;20046;-80
2021/12/18 13:16:04;;;;;;;4.65;1.23;;;8.40;99.90;;;;;;4953520;28;20050;-80
2021/12/18 13:18:36;;;;;;;5.07;1.00;;;8.40;99.90;;;;;;4959337;28;20062;-80
2021/12/18 13:21:07;;;;;;;3.40;1.30;;;8.40;99.90;;;;;;4965485;28;20046;-80
2021/12/18 13:23:45;;;;;;;2.22;0.70;;;8.40;99.90;;;;;;4978657;28;20892;-80
2021/12/18 13:26:31;;;;;;;4.43;1.05;;;8.40;99.90;;;;;;4968346;28;20053;-80
2021/12/18 13:29:15;;;;;;;2.85;1.30;;;8.50;99.90;;;;;;4968349;28;20046;-80
2021/12/18 13:32:07;;;;;;;3.65;1.30;;;8.40;99.90;;;;;;4963018;28;20577;-81
2021/12/18 13:34:37;;;;;;;3.15;1.38;;;8.40;99.90;;;;;;4949093;28;20069;-81
2021/12/18 13:37:06;;;;;;;6.63;1.60;;;8.50;99.90;;;;;;4946307;28;20053;-80
2021/12/18 13:39:40;;;;;;;3.90;1.10;;;8.40;99.90;;;;;;4969527;28;20034;-80
2021/12/18 13:42:14;;;;;;;4.00;1.15;;;8.50;99.90;;;;;;4951375;28;20046;-80
2021/12/18 13:45:04;;;;;;;3.08;1.38;;;8.50;99.90;;;;;;4967901;28;20050;-80
2021/12/18 13:47:47;;;;;;;3.60;1.50;;;8.50;99.90;;;;;;4981518;28;20041;-80
2021/12/18 13:55:33;;;;;;;5.45;1.80;;;8.50;99.90;;;;;;4932515;26;20540;-80